createdAt,value
2019-05-22T00:01:21.870Z,56.60
2019-05-22T00:03:52.135Z,56.50
2019-05-22T00:06:24.020Z,56.60
2019-05-22T00:08:52.377Z,56.60
2019-05-22T00:11:21.436Z,56.60
2019-05-22T00:13:50.933Z,56.60
2019-05-22T00:16:21.671Z,56.60
2019-05-22T00:18:50.515Z,56.70
2019-05-22T00:21:20.504Z,56.60
2019-05-22T00:23:48.866Z,56.60
2019-05-22T00:26:18.596Z,56.60
2019-05-22T00:28:47.036Z,56.60
2019-05-22T00:31:15.483Z,56.60
2019-05-22T00:33:44.141Z,56.60
2019-05-22T00:36:13.545Z,56.60
2019-05-22T00:38:41.908Z,56.60
2019-05-22T00:41:13.263Z,56.60
2019-05-22T00:43:42.494Z,56.70
2019-05-22T00:46:12.762Z,56.70
2019-05-22T00:48:41.913Z,56.70
2019-05-22T00:51:30.662Z,56.70
2019-05-22T00:54:03.343Z,56.70
2019-05-22T00:56:51.714Z,56.80
2019-05-22T00:59:29.145Z,56.70
2019-05-22T01:02:04.912Z,56.70
2019-05-22T01:04:38.233Z,56.80
2019-05-22T01:07:08.262Z,56.80
2019-05-22T01:09:44.524Z,56.80
2019-05-22T01:12:20.333Z,57.40
2019-05-22T01:14:50.654Z,56.90
2019-05-22T01:17:20.649Z,56.90
2019-05-22T01:19:51.994Z,56.90
2019-05-22T01:22:20.359Z,56.80
2019-05-22T01:24:53.371Z,56.90
2019-05-22T01:27:23.693Z,56.80
2019-05-22T01:29:53.694Z,56.80
2019-05-22T01:32:39.936Z,56.90
2019-05-22T01:35:10.016Z,56.90
2019-05-22T01:37:40.098Z,56.90
2019-05-22T01:40:10.273Z,57.00
2019-05-22T01:42:40.274Z,57.10
2019-05-22T01:45:09.489Z,57.00
2019-05-22T01:47:48.673Z,57.20
2019-05-22T01:50:24.453Z,57.20
2019-05-22T01:52:54.836Z,57.30
2019-05-22T01:55:23.283Z,57.20
2019-05-22T01:57:53.377Z,57.30
2019-05-22T02:00:22.605Z,57.20
2019-05-22T02:02:52.223Z,57.20
2019-05-22T02:05:20.847Z,57.20
2019-05-22T02:07:49.783Z,57.20
2019-05-22T02:10:24.323Z,57.20
2019-05-22T02:12:59.422Z,57.20
2019-05-22T02:15:27.847Z,57.10
2019-05-22T02:17:57.889Z,57.20
2019-05-22T02:20:27.954Z,57.10
2019-05-22T02:22:57.718Z,57.10
2019-05-22T02:25:26.782Z,57.10
2019-05-22T02:27:56.844Z,57.10
2019-05-22T02:30:26.858Z,57.10
2019-05-22T02:32:55.535Z,57.00
2019-05-22T02:35:25.532Z,57.10
2019-05-22T02:37:55.543Z,57.20
2019-05-22T02:40:29.486Z,57.10
2019-05-22T02:42:57.873Z,57.10
2019-05-22T02:45:26.217Z,57.10
2019-05-22T02:47:56.031Z,57.10
2019-05-22T02:50:24.447Z,57.00
2019-05-22T02:52:53.369Z,57.00
2019-05-22T02:55:21.754Z,57.00
2019-05-22T02:57:50.504Z,57.30
2019-05-22T03:00:21.465Z,57.10
2019-05-22T03:02:57.273Z,57.10
2019-05-22T03:05:26.818Z,57.10
2019-05-22T03:07:55.908Z,57.10
2019-05-22T03:10:25.460Z,57.10
2019-05-22T03:12:53.885Z,57.10
2019-05-22T03:15:23.870Z,57.10
2019-05-22T03:17:59.428Z,57.00
2019-05-22T03:20:28.985Z,57.00
2019-05-22T03:23:01.078Z,57.10
2019-05-22T03:25:30.090Z,57.10
2019-05-22T03:27:58.456Z,57.10
2019-05-22T03:30:34.620Z,57.20
2019-05-22T03:33:05.093Z,57.10
2019-05-22T03:35:48.491Z,57.10
2019-05-22T03:38:18.281Z,57.10
2019-05-22T03:40:47.288Z,57.10
2019-05-22T03:43:18.965Z,57.20
2019-05-22T03:45:47.971Z,57.10
2019-05-22T03:48:16.807Z,57.10
2019-05-22T03:50:45.180Z,57.20
2019-05-22T03:53:15.948Z,57.10
2019-05-22T03:55:45.537Z,57.10
2019-05-22T03:58:14.452Z,57.10
2019-05-22T04:00:44.457Z,57.10
2019-05-22T04:03:15.334Z,57.10
2019-05-22T04:05:43.707Z,57.20
2019-05-22T04:08:13.727Z,57.20
2019-05-22T04:11:00.048Z,57.20
2019-05-22T04:13:29.067Z,57.20
2019-05-22T04:15:58.388Z,57.30
2019-05-22T04:18:27.135Z,57.40
2019-05-22T04:20:56.576Z,57.50
2019-05-22T04:23:25.030Z,57.50
2019-05-22T04:25:53.625Z,57.60
2019-05-22T04:28:22.080Z,57.60
2019-05-22T04:30:50.703Z,57.50
2019-05-22T04:33:19.438Z,57.60
2019-05-22T04:35:49.073Z,57.50
2019-05-22T04:38:18.603Z,57.50
2019-05-22T04:40:48.777Z,57.60
2019-05-22T04:43:20.525Z,57.60
2019-05-22T04:45:49.085Z,57.80
2019-05-22T04:48:17.835Z,57.70
2019-05-22T04:50:46.416Z,57.80
2019-05-22T04:53:16.270Z,57.80
2019-05-22T04:55:45.355Z,57.80
2019-05-22T04:58:15.717Z,58.00
2019-05-22T05:00:44.544Z,58.10
2019-05-22T05:03:12.894Z,58.20
2019-05-22T05:05:45.851Z,58.90
2019-05-22T05:08:15.263Z,62.10
2019-05-22T05:10:46.424Z,63.30
2019-05-22T05:13:14.870Z,66.40
2019-05-22T05:15:43.235Z,70.60
2019-05-22T05:18:12.056Z,75.20
2019-05-22T05:20:40.425Z,77.10
2019-05-22T05:23:08.778Z,75.90
2019-05-22T05:25:37.158Z,72.90
2019-05-22T05:28:07.168Z,72.10
2019-05-22T05:30:35.528Z,70.40
2019-05-22T05:33:05.915Z,68.80
2019-05-22T05:35:35.340Z,66.00
2019-05-22T05:38:04.679Z,62.80
2019-05-22T05:40:40.392Z,63.30
2019-05-22T05:43:13.116Z,62.60
2019-05-22T05:45:42.610Z,61.50
2019-05-22T05:48:12.116Z,57.40
2019-05-22T05:50:42.877Z,53.90
2019-05-22T05:53:12.891Z,52.30
2019-05-22T05:56:00.866Z,52.00
2019-05-22T05:58:29.941Z,52.60
2019-05-22T06:01:09.330Z,53.30
2019-05-22T06:03:40.622Z,53.40
2019-05-22T06:06:14.623Z,53.60
2019-05-22T06:08:43.961Z,53.70
2019-05-22T06:11:33.988Z,53.80
2019-05-22T06:14:03.059Z,54.10
2019-05-22T06:16:51.204Z,54.40
2019-05-22T06:19:21.405Z,54.80
2019-05-22T06:21:50.415Z,54.50
2019-05-22T06:24:23.787Z,54.30
2019-05-22T06:26:54.946Z,54.60
2019-05-22T06:29:27.869Z,54.50
2019-05-22T06:32:04.545Z,54.80
2019-05-22T06:34:33.657Z,54.90
2019-05-22T06:37:18.297Z,54.90
2019-05-22T06:39:47.843Z,54.90
2019-05-22T06:42:16.215Z,55.00
2019-05-22T06:44:44.580Z,55.00
2019-05-22T06:47:14.154Z,55.00
2019-05-22T06:49:42.945Z,54.90
2019-05-22T06:52:11.479Z,54.50
2019-05-22T06:54:40.079Z,54.60
2019-05-22T06:57:13.503Z,54.80
2019-05-22T06:59:43.731Z,54.80
2019-05-22T07:02:13.887Z,54.70
2019-05-22T07:04:42.810Z,54.60
2019-05-22T07:07:12.563Z,54.90
2019-05-22T07:09:41.950Z,54.90
2019-05-22T07:12:10.772Z,54.90
2019-05-22T07:14:44.024Z,54.90
2019-05-22T07:17:14.039Z,55.00
2019-05-22T07:19:43.976Z,55.10
2019-05-22T07:22:13.896Z,55.30
2019-05-22T07:24:42.273Z,55.30
2019-05-22T07:27:21.585Z,55.10
2019-05-22T07:29:50.807Z,55.10
2019-05-22T07:32:19.194Z,55.00
2019-05-22T07:34:47.548Z,55.00
2019-05-22T07:37:16.092Z,55.10
2019-05-22T07:39:44.377Z,55.30
2019-05-22T07:42:12.816Z,55.40
2019-05-22T07:44:41.167Z,55.70
2019-05-22T07:47:10.170Z,55.60
2019-05-22T07:49:38.532Z,55.60
2019-05-22T07:52:07.158Z,55.40
2019-05-22T07:54:36.510Z,55.40
2019-05-22T07:57:06.504Z,55.40
2019-05-22T07:59:34.889Z,55.20
2019-05-22T08:02:03.312Z,54.90
2019-05-22T08:04:32.044Z,54.60
2019-05-22T08:07:01.084Z,54.40
2019-05-22T08:09:29.485Z,54.20
2019-05-22T08:11:58.494Z,54.10
2019-05-22T08:14:27.075Z,54.00
2019-05-22T08:16:55.418Z,54.40
2019-05-22T08:19:24.537Z,54.50
2019-05-22T08:22:06.092Z,54.50
2019-05-22T08:24:23.175Z,54.60
2019-05-22T08:26:54.895Z,54.50
2019-05-22T08:29:22.086Z,54.00
2019-05-22T08:31:50.457Z,54.00
2019-05-22T08:34:19.085Z,53.90
2019-05-22T08:36:49.127Z,53.90
2019-05-22T08:39:17.925Z,53.90
2019-05-22T08:41:46.274Z,53.80
2019-05-22T08:44:17.125Z,54.00
2019-05-22T08:46:45.982Z,53.90
2019-05-22T08:49:14.337Z,53.80
2019-05-22T08:51:42.799Z,53.80
2019-05-22T08:54:11.704Z,53.70
2019-05-22T08:56:40.252Z,53.70
2019-05-22T08:59:18.791Z,53.40
2019-05-22T09:01:40.357Z,53.30
2019-05-22T09:04:08.978Z,53.00
2019-05-22T09:06:37.328Z,53.00
2019-05-22T09:09:06.814Z,53.10
2019-05-22T09:11:35.166Z,53.10
2019-05-22T09:14:03.546Z,53.00
2019-05-22T09:16:32.672Z,53.10
2019-05-22T09:19:01.414Z,53.20
2019-05-22T09:21:29.776Z,53.10
2019-05-22T09:23:58.916Z,53.00
2019-05-22T09:26:27.661Z,53.20
2019-05-22T09:28:56.017Z,53.40
2019-05-22T09:31:24.467Z,53.30
2019-05-22T09:33:53.321Z,53.20
2019-05-22T09:36:21.673Z,53.10
2019-05-22T09:38:52.383Z,53.20
2019-05-22T09:41:20.758Z,53.20
2019-05-22T09:43:49.116Z,53.30
2019-05-22T09:46:17.971Z,53.20
2019-05-22T09:48:46.337Z,53.20
2019-05-22T09:51:15.456Z,53.10
2019-05-22T09:53:44.603Z,52.80
2019-05-22T09:56:13.399Z,52.90
2019-05-22T09:58:41.868Z,53.60
2019-05-22T10:01:12.145Z,53.00
2019-05-22T10:03:40.754Z,52.90
2019-05-22T10:06:09.262Z,52.60
2019-05-22T10:08:38.125Z,52.20
2019-05-22T10:11:06.501Z,52.20
2019-05-22T10:13:35.193Z,52.30
2019-05-22T10:16:03.511Z,52.00
2019-05-22T10:18:31.937Z,51.80
2019-05-22T10:21:00.474Z,51.60
2019-05-22T10:23:29.784Z,51.40
2019-05-22T10:25:58.226Z,51.30
2019-05-22T10:28:26.754Z,51.30
2019-05-22T10:30:56.337Z,51.40
2019-05-22T10:33:25.251Z,51.60
2019-05-22T10:35:53.619Z,51.70
2019-05-22T10:38:22.552Z,51.60
2019-05-22T10:40:50.968Z,51.50
2019-05-22T10:43:19.539Z,51.30
2019-05-22T10:45:48.008Z,51.50
2019-05-22T10:48:16.364Z,51.60
2019-05-22T10:50:44.715Z,51.50
2019-05-22T10:53:13.107Z,51.70
2019-05-22T10:55:41.521Z,51.80
2019-05-22T10:58:09.890Z,52.10
2019-05-22T11:00:38.335Z,52.30
2019-05-22T11:03:07.332Z,52.50
2019-05-22T11:05:36.078Z,52.80
2019-05-22T11:08:05.518Z,53.10
2019-05-22T11:10:33.950Z,53.30
2019-05-22T11:13:02.349Z,53.20
2019-05-22T11:15:30.758Z,52.80
2019-05-22T11:17:59.226Z,52.50
2019-05-22T11:20:27.931Z,52.00
2019-05-22T11:22:56.688Z,52.00
2019-05-22T11:25:26.333Z,51.80
2019-05-22T11:27:54.704Z,51.30
2019-05-22T11:30:23.135Z,51.20
2019-05-22T11:32:52.421Z,51.20
2019-05-22T11:35:21.454Z,50.60
2019-05-22T11:37:49.821Z,50.60
2019-05-22T11:40:18.177Z,50.70
2019-05-22T11:42:46.645Z,50.90
2019-05-22T11:45:15.090Z,50.90
2019-05-22T11:47:43.455Z,50.90
2019-05-22T11:50:14.844Z,50.80
2019-05-22T11:52:43.285Z,50.60
2019-05-22T11:55:13.598Z,50.30
2019-05-22T11:57:43.375Z,50.30
2019-05-22T12:00:12.417Z,50.20
2019-05-22T12:02:40.869Z,50.50
2019-05-22T12:05:10.430Z,49.90
2019-05-22T12:07:40.973Z,49.90
2019-05-22T12:10:09.666Z,50.00
2019-05-22T12:12:38.037Z,49.60
2019-05-22T12:15:08.664Z,49.60
2019-05-22T12:17:38.747Z,49.70
2019-05-22T12:20:10.133Z,50.00
2019-05-22T12:22:39.805Z,49.60
2019-05-22T12:25:10.576Z,49.60
2019-05-22T12:27:39.201Z,49.50
2019-05-22T12:30:07.736Z,49.40
2019-05-22T12:32:36.391Z,49.40
2019-05-22T12:35:06.288Z,49.30
2019-05-22T12:37:35.391Z,49.20
2019-05-22T12:40:06.702Z,49.40
2019-05-22T12:42:35.051Z,49.50
2019-05-22T12:45:06.002Z,49.70
2019-05-22T12:47:34.444Z,49.90
2019-05-22T12:50:03.488Z,50.50
2019-05-22T12:52:34.079Z,49.80
2019-05-22T12:55:02.982Z,49.50
2019-05-22T12:57:31.340Z,49.90
2019-05-22T13:00:02.478Z,49.20
2019-05-22T13:02:30.274Z,49.30
2019-05-22T13:04:59.529Z,49.60
2019-05-22T13:07:28.473Z,49.30
2019-05-22T13:09:57.008Z,49.30
2019-05-22T13:12:25.436Z,49.00
2019-05-22T13:15:08.428Z,48.90
2019-05-22T13:17:24.553Z,48.80
2019-05-22T13:19:52.920Z,48.70
2019-05-22T13:22:24.339Z,48.50
2019-05-22T13:24:52.685Z,48.50
2019-05-22T13:27:22.636Z,48.30
2019-05-22T13:29:51.940Z,48.40
2019-05-22T13:32:20.280Z,48.20
2019-05-22T13:34:48.723Z,48.50
2019-05-22T13:37:17.093Z,48.80
2019-05-22T13:39:45.522Z,48.80
2019-05-22T13:42:13.876Z,48.60
2019-05-22T13:44:43.211Z,48.40
2019-05-22T13:47:12.509Z,48.40
2019-05-22T13:49:41.224Z,48.60
2019-05-22T13:52:09.575Z,48.60
2019-05-22T13:54:37.949Z,48.90
2019-05-22T13:57:07.264Z,48.50
2019-05-22T13:59:36.432Z,48.70
2019-05-22T14:02:04.772Z,49.00
2019-05-22T14:04:33.501Z,48.30
2019-05-22T14:07:02.814Z,47.90
2019-05-22T14:09:31.533Z,47.80
2019-05-22T14:11:59.895Z,48.10
2019-05-22T14:14:28.265Z,48.00
2019-05-22T14:16:56.636Z,48.30
2019-05-22T14:19:25.003Z,48.50
2019-05-22T14:21:53.467Z,48.30
2019-05-22T14:24:21.863Z,48.00
2019-05-22T14:26:50.648Z,48.00
2019-05-22T14:29:19.089Z,48.30
2019-05-22T14:31:47.686Z,48.10
2019-05-22T14:34:16.210Z,48.00
2019-05-22T14:36:44.567Z,47.80
2019-05-22T14:39:14.577Z,47.40
2019-05-22T14:41:42.931Z,47.10
2019-05-22T14:44:11.310Z,47.20
2019-05-22T14:46:39.664Z,47.50
2019-05-22T14:49:08.036Z,47.70
2019-05-22T14:51:36.688Z,47.60
2019-05-22T14:54:06.202Z,47.60
2019-05-22T14:56:34.554Z,47.80
2019-05-22T14:59:03.781Z,47.90
2019-05-22T15:01:32.134Z,47.60
2019-05-22T15:04:00.551Z,47.70
2019-05-22T15:06:29.193Z,47.50
2019-05-22T15:08:57.579Z,47.30
2019-05-22T15:11:26.339Z,47.30
2019-05-22T15:13:54.758Z,47.20
2019-05-22T15:16:23.128Z,47.30
2019-05-22T15:18:51.484Z,47.30
2019-05-22T15:21:19.857Z,47.20
2019-05-22T15:23:48.994Z,47.00
2019-05-22T15:26:17.413Z,47.00
2019-05-22T15:28:45.780Z,47.10
2019-05-22T15:31:14.133Z,47.00
2019-05-22T15:33:42.522Z,47.10
2019-05-22T15:36:12.516Z,47.30
2019-05-22T15:38:41.010Z,47.40
2019-05-22T15:41:11.023Z,47.00
2019-05-22T15:43:41.113Z,47.10
2019-05-22T15:46:10.439Z,47.40
2019-05-22T15:48:39.677Z,47.50
2019-05-22T15:51:09.222Z,47.30
2019-05-22T15:53:38.718Z,47.30
2019-05-22T15:56:08.242Z,47.20
2019-05-22T15:58:37.257Z,47.20
2019-05-22T16:01:08.514Z,46.60
2019-05-22T16:03:37.333Z,46.50
2019-05-22T16:06:05.792Z,46.40
2019-05-22T16:08:34.200Z,46.30
2019-05-22T16:11:03.825Z,46.40
2019-05-22T16:13:33.055Z,46.50
2019-05-22T16:16:02.040Z,46.50
2019-05-22T16:18:32.050Z,46.50
2019-05-22T16:21:02.048Z,46.60
2019-05-22T16:23:31.562Z,46.70
2019-05-22T16:26:00.033Z,47.00
2019-05-22T16:28:33.185Z,46.50
2019-05-22T16:30:59.522Z,46.30
2019-05-22T16:33:28.755Z,46.20
2019-05-22T16:35:57.388Z,46.20
2019-05-22T16:38:26.126Z,46.10
2019-05-22T16:40:54.740Z,46.00
2019-05-22T16:43:23.333Z,45.80
2019-05-22T16:45:52.171Z,45.80
2019-05-22T16:48:29.145Z,45.60
2019-05-22T16:50:51.374Z,45.70
2019-05-22T16:53:19.803Z,45.60
2019-05-22T16:55:48.181Z,45.50
2019-05-22T16:58:16.702Z,45.40
2019-05-22T17:00:45.219Z,45.30
2019-05-22T17:03:15.185Z,45.30
2019-05-22T17:05:43.900Z,45.40
2019-05-22T17:08:13.028Z,45.30
2019-05-22T17:10:41.859Z,45.40
2019-05-22T17:13:12.258Z,45.30
2019-05-22T17:15:40.867Z,45.40
2019-05-22T17:18:10.856Z,45.40
2019-05-22T17:20:40.498Z,45.40
2019-05-22T17:23:08.922Z,45.40
2019-05-22T17:25:37.370Z,45.40
2019-05-22T17:28:06.699Z,45.30
2019-05-22T17:30:35.076Z,45.20
2019-05-22T17:33:04.574Z,45.20
2019-05-22T17:35:34.233Z,45.20
2019-05-22T17:38:03.436Z,45.20
2019-05-22T17:40:31.787Z,45.30
2019-05-22T17:43:00.157Z,45.20
2019-05-22T17:45:28.976Z,45.20
2019-05-22T17:47:57.517Z,45.10
2019-05-22T17:50:27.653Z,45.10
2019-05-22T17:52:56.797Z,45.00
2019-05-22T17:55:26.008Z,45.00
2019-05-22T17:57:54.723Z,45.00
2019-05-22T18:00:33.613Z,45.00
2019-05-22T18:03:02.853Z,44.90
2019-05-22T18:05:31.654Z,45.00
2019-05-22T18:08:00.104Z,44.90
2019-05-22T18:10:30.386Z,44.90
2019-05-22T18:12:58.724Z,44.90
2019-05-22T18:15:27.368Z,44.90
2019-05-22T18:17:56.226Z,44.90
2019-05-22T18:20:25.154Z,45.00
2019-05-22T18:22:53.515Z,44.90
2019-05-22T18:25:21.886Z,44.90
2019-05-22T18:27:51.208Z,45.00
2019-05-22T18:30:19.624Z,45.60
2019-05-22T18:32:47.980Z,45.00
2019-05-22T18:35:16.360Z,45.00
2019-05-22T18:37:44.718Z,45.00
2019-05-22T18:40:13.816Z,45.00
2019-05-22T18:42:42.612Z,45.00
2019-05-22T18:45:11.963Z,45.00
2019-05-22T18:47:40.357Z,44.90
2019-05-22T18:50:08.715Z,44.90
2019-05-22T18:52:41.202Z,44.90
2019-05-22T18:55:07.145Z,44.90
2019-05-22T18:57:35.570Z,44.90
2019-05-22T19:00:07.351Z,44.90
2019-05-22T19:02:35.872Z,44.90
2019-05-22T19:05:06.194Z,44.90
2019-05-22T19:07:34.607Z,44.90
2019-05-22T19:10:04.148Z,44.90
2019-05-22T19:12:32.511Z,44.90
2019-05-22T19:15:00.888Z,45.20
2019-05-22T19:17:30.008Z,44.80
2019-05-22T19:19:58.398Z,44.90
2019-05-22T19:22:27.522Z,45.00
2019-05-22T19:24:55.890Z,44.90
2019-05-22T19:27:24.258Z,44.90
2019-05-22T19:29:52.608Z,44.90
2019-05-22T19:32:21.066Z,44.90
2019-05-22T19:34:49.415Z,44.90
2019-05-22T19:37:17.787Z,45.40
2019-05-22T19:39:46.231Z,44.90
2019-05-22T19:42:15.178Z,44.90
2019-05-22T19:44:43.599Z,44.90
2019-05-22T19:47:12.331Z,45.00
2019-05-22T19:49:43.762Z,44.90
2019-05-22T19:52:12.745Z,44.90
2019-05-22T19:54:41.481Z,44.90
2019-05-22T19:57:09.910Z,44.80
2019-05-22T19:59:38.342Z,44.90
2019-05-22T20:02:07.137Z,44.80
2019-05-22T20:04:35.492Z,44.90
2019-05-22T20:07:04.498Z,44.90
2019-05-22T20:09:33.800Z,44.90
2019-05-22T20:12:02.358Z,44.90
2019-05-22T20:14:31.009Z,44.80
2019-05-22T20:16:59.449Z,44.80
2019-05-22T20:19:27.848Z,44.80
2019-05-22T20:22:00.023Z,44.80
2019-05-22T20:24:27.155Z,44.80
2019-05-22T20:26:55.572Z,44.80
2019-05-22T20:29:24.714Z,44.80
2019-05-22T20:31:53.132Z,44.80
2019-05-22T20:34:21.500Z,44.80
2019-05-22T20:36:49.859Z,44.70
2019-05-22T20:39:18.618Z,44.80
2019-05-22T20:41:46.952Z,44.80
2019-05-22T20:44:15.590Z,44.80
2019-05-22T20:46:45.498Z,44.80
2019-05-22T20:49:14.370Z,44.90
2019-05-22T20:51:43.914Z,44.90
2019-05-22T20:54:12.932Z,44.90
2019-05-22T20:56:43.912Z,45.30
2019-05-22T20:59:12.837Z,44.80
2019-05-22T21:01:41.467Z,44.80
2019-05-22T21:04:13.216Z,44.80
2019-05-22T21:06:48.585Z,44.80
2019-05-22T21:09:17.393Z,44.80
2019-05-22T21:11:45.742Z,44.80
2019-05-22T21:14:14.773Z,44.80
2019-05-22T21:16:43.634Z,44.90
2019-05-22T21:19:12.711Z,44.90
2019-05-22T21:21:42.441Z,45.00
2019-05-22T21:24:12.400Z,45.00
2019-05-22T21:26:41.471Z,45.60
2019-05-22T21:29:10.102Z,45.00
2019-05-22T21:31:38.493Z,45.00
2019-05-22T21:34:07.115Z,45.00
2019-05-22T21:36:35.496Z,45.10
2019-05-22T21:39:05.131Z,45.10
2019-05-22T21:41:33.563Z,45.10
2019-05-22T21:44:01.929Z,45.10
2019-05-22T21:46:30.352Z,45.10
2019-05-22T21:49:00.001Z,45.20
2019-05-22T21:51:28.725Z,45.20
2019-05-22T21:53:57.374Z,45.20
2019-05-22T21:56:26.058Z,45.10
2019-05-22T21:58:54.431Z,45.20
2019-05-22T22:01:30.553Z,45.20
2019-05-22T22:04:03.344Z,45.30
2019-05-22T22:06:33.311Z,45.30
2019-05-22T22:09:02.026Z,45.30
2019-05-22T22:11:30.482Z,45.30
2019-05-22T22:13:59.608Z,45.20
2019-05-22T22:16:29.296Z,45.20
2019-05-22T22:18:57.672Z,45.20
2019-05-22T22:21:26.408Z,45.10
2019-05-22T22:23:54.828Z,45.10
2019-05-22T22:26:25.761Z,45.10
2019-05-22T22:28:53.372Z,45.10
2019-05-22T22:31:23.387Z,45.10
2019-05-22T22:33:54.996Z,45.10
2019-05-22T22:36:23.389Z,45.10
2019-05-22T22:38:51.782Z,45.10
2019-05-22T22:41:20.425Z,45.10
2019-05-22T22:43:49.172Z,45.30
2019-05-22T22:46:27.641Z,45.10
2019-05-22T22:48:57.933Z,45.10
2019-05-22T22:51:26.875Z,45.30
2019-05-22T22:53:56.300Z,45.30
2019-05-22T22:56:25.207Z,45.30
2019-05-22T22:58:53.707Z,45.20
2019-05-22T23:01:27.918Z,45.10
2019-05-22T23:03:56.837Z,45.20
2019-05-22T23:06:25.275Z,45.20
2019-05-22T23:08:53.629Z,45.20
2019-05-22T23:11:22.655Z,45.20
2019-05-22T23:13:51.019Z,45.20
2019-05-22T23:16:21.026Z,45.20
2019-05-22T23:19:11.274Z,45.20
2019-05-22T23:21:40.427Z,45.20
2019-05-22T23:24:09.084Z,45.10
2019-05-22T23:26:39.076Z,45.10
2019-05-22T23:29:08.608Z,45.10
2019-05-22T23:31:38.348Z,45.10
2019-05-22T23:34:08.059Z,45.20
2019-05-22T23:36:36.794Z,45.30
2019-05-22T23:39:08.477Z,45.30
2019-05-22T23:41:37.388Z,45.40
2019-05-22T23:44:07.497Z,45.30
2019-05-22T23:46:36.216Z,45.30
2019-05-22T23:49:04.582Z,45.30
2019-05-22T23:51:33.229Z,45.40
2019-05-22T23:54:01.865Z,45.30
2019-05-22T23:56:30.789Z,45.40
2019-05-22T23:58:59.316Z,45.40
